Monatstabelle

Bitte in den Auwahlmenüs den gewünschte Zeiraum wählen und die Schaltfläche "Anfrage absenden" betätigen. Beginn der Aufzeichnung ist 2007 - Dezember. Vor diesem Zeitraum sind keine Daten verfügbar.

2018 - Mai

 

Datum Temperatur (°C) Luftdruck (hPa) Luftfeuchte (%) Regen
(l/m²)
Wind (km/h)
avg: min: max: avg: min: max: avg: min: max: avg: max:
01.05.2018 18,3 10,0 24,4 1009,5 1005,9 1010,9 50 36 73 0,0 5,5 13,5
02.05.2018 18,4 12,2 26,2 1009,5 1006,8 1012,1 75 52 88 7,5 2,9 11,3
03.05.2018 18,0 11,2 25,9 1009,3 1007,8 1010,9 77 53 89 2,7 2,6 11,7
04.05.2018 17,6 15,3 22,3 1015,1 1010,9 1016,1 78 66 85 0,0 6,0 16,3
05.05.2018 16,4 11,7 21,5 1018,5 1017,2 1019,9 72 60 86 0,8 6,3 19,3
06.05.2018 15,4 8,7 22,3 1018,7 1017,2 1020,3 59 39 77 0,0 5,8 18,7
07.05.2018 15,7 7,5 23,3 1015,4 1013,6 1019,0 66 43 87 0,0 3,5 13,8
08.05.2018 15,3 7,4 23,7 1010,4 1007,7 1014,3 72 37 87 0,0 2,4 16,1
09.05.2018 17,5 8,0 25,6 1006,6 1005,4 1008,9 71 42 89 0,0 2,6 9,2
10.05.2018 17,1 10,6 25,0 1010,3 1006,1 1013,2 74 44 89 0,4 1,1 10,5
11.05.2018 18,1 13,2 23,6 1015,8 1013,2 1018,0 71 54 86 0,0 2,6 12,7
12.05.2018 18,2 10,4 27,5 1013,3 1011,9 1016,0 79 48 89 8,8 2,2 10,5
13.05.2018 17,8 11,3 25,7 1009,2 1007,5 1012,3 78 56 90 2,1 3,9 12,2
14.05.2018 15,4 13,0 19,5 1009,6 1007,6 1010,6 75 60 88 1,0 2,5 16,9
15.05.2018 10,5 9,0 13,1 1008,8 1007,9 1009,8 89 85 90 15,1 3,7 11,6
16.05.2018 13,4 9,4 20,1 1010,1 1008,4 1011,4 80 56 90 2,7 2,6 9,8
17.05.2018 14,0 8,4 17,5 1012,5 1010,1 1013,6 77 65 90 1,0 2,1 17,5
18.05.2018 15,7 10,9 21,5 1014,8 1013,4 1015,8 73 55 89 0,7 3,5 13,8
19.05.2018 16,0 9,4 21,7 1016,6 1015,3 1017,9 74 55 88 0,5 3,1 15,3
20.05.2018 15,2 8,6 22,5 1018,8 1017,4 1020,4 72 47 89 0,1 3,4 12,2
21.05.2018 16,7 8,7 23,1 1015,4 1013,4 1018,4 75 49 89 0,1 2,8 9,5
22.05.2018 18,9 10,2 25,4 1013,2 1011,9 1014,0 72 49 88 0,0 6,7 15,8
23.05.2018 20,5 13,6 27,5 1015,5 1013,2 1016,9 70 45 88 0,0 4,3 16,4
24.05.2018 18,0 15,1 25,3 1016,2 1015,0 1018,1 84 64 88 0,5 3,3 7,9
25.05.2018 17,2 13,4 20,5 1016,9 1014,8 1018,1 85 78 89 6,0 2,5 13,2
26.05.2018 19,1 11,2 25,8 1019,3 1017,9 1020,5 75 58 90 1,2 3,4 9,0
27.05.2018 21,5 12,5 28,6 1017,7 1016,5 1019,7 73 53 89 0,5 4,2 11,6
28.05.2018 22,1 14,4 29,1 1017,5 1015,7 1019,0 72 52 89 0,0 5,6 14,8
29.05.2018 21,0 17,2 28,7 1015,2 1014,0 1017,1 76 48 87 2,3 6,8 16,9
30.05.2018 20,7 16,6 27,3 1015,0 1013,7 1016,4 68 50 88 2,2 6,6 12,2
31.05.2018 23,1 16,1 29,3 1013,4 1012,6 1015,2 69 48 81 0,0 6,1 14,6
avg. 17,5 1013,8 73   ---
  Summe Regen: 56,5  
 
Min-Datum 08.05.2018 09.05.2018 01.05.2018 --- ---
Min-Zeit 05:22 18:22 17:04 --- ---
Minimum 7,4 1005,4 36 --- ---
 

Max-Datum

31.05.2018 26.05.2018 13.05.2018 15.05.2018 05.05.2018
Max-Zeit 12:52 13:04 07:52 00:54 15:40
Maximum 29,3 1020,5 90 15,1 19,3
 

 

  Letztes Jahr
gleiches Monat
Eistage max < 0°C 0 0
Frosttage min < 0°C 0 1
Sommertage max >=25°C 15 7
Heiße Tage max >=30°C 0 1

 

<<< nach oben >>>